Time;durP1;ratioP1;P1;durP2;ratioP2;P2;SDS_P1;SDS_P2;PMS_P1;PMS_P2;Temp;Humidity;BMP_temperature;BMP_pressure;BME280_temperature;BME280_humidity;BME280_pressure;Samples;Min_cycle;Max_cycle;Signal;HPM_P1;HPM_P2
2021/07/02 00:00:21;;;;;;;25.70;10.52;;;16.30;99.90;;;;;;5082855;28;20038;-63
2021/07/02 00:02:47;;;;;;;26.08;11.82;;;16.30;99.90;;;;;;5081973;28;20139;-63
2021/07/02 00:05:15;;;;;;;30.55;10.73;;;16.30;99.90;;;;;;5081956;28;20127;-63
2021/07/02 00:07:40;;;;;;;27.42;12.05;;;16.20;99.90;;;;;;5080469;28;20135;-63
2021/07/02 00:10:09;;;;;;;29.10;11.30;;;16.20;99.90;;;;;;5080224;28;20123;-63
2021/07/02 00:12:35;;;;;;;22.25;11.50;;;16.20;99.90;;;;;;5081094;28;20382;-63
2021/07/02 00:15:02;;;;;;;30.98;11.75;;;16.20;99.90;;;;;;5080622;28;20044;-63
2021/07/02 00:17:27;;;;;;;24.35;11.63;;;16.20;99.90;;;;;;5080368;28;20102;-64
2021/07/02 00:19:58;;;;;;;36.28;12.32;;;16.20;99.90;;;;;;5081031;28;20115;-63
2021/07/02 00:22:24;;;;;;;26.90;11.38;;;16.20;99.90;;;;;;5082582;28;20028;-63
2021/07/02 00:24:50;;;;;;;33.17;11.38;;;16.20;99.90;;;;;;5084032;28;20032;-63
2021/07/02 00:27:16;;;;;;;26.67;10.65;;;16.10;99.90;;;;;;5083995;28;20044;-63
2021/07/02 00:29:41;;;;;;;28.88;12.70;;;16.10;99.90;;;;;;5080035;28;20493;-63
2021/07/02 00:32:07;;;;;;;25.20;11.82;;;16.20;99.90;;;;;;5081025;28;20032;-63
2021/07/02 00:34:34;;;;;;;29.38;10.90;;;16.20;99.90;;;;;;5082561;28;20036;-63
2021/07/02 00:36:59;;;;;;;29.58;12.10;;;16.10;99.90;;;;;;5082625;28;20143;-63
2021/07/02 00:39:25;;;;;;;28.38;11.32;;;16.20;99.90;;;;;;5084824;28;20165;-63
2021/07/02 00:41:51;;;;;;;30.25;11.23;;;16.20;99.90;;;;;;5083490;28;20428;-63
2021/07/02 00:44:16;;;;;;;29.38;10.65;;;16.10;99.90;;;;;;5081638;28;20116;-63
2021/07/02 00:46:42;;;;;;;23.63;11.52;;;16.20;99.90;;;;;;5082229;28;20044;-63
2021/07/02 00:49:09;;;;;;;23.63;11.05;;;16.20;99.90;;;;;;5081137;28;20055;-63
2021/07/02 00:51:35;;;;;;;25.88;10.60;;;16.20;99.90;;;;;;5083475;28;20114;-63
2021/07/02 00:54:02;;;;;;;26.65;10.23;;;16.20;99.90;;;;;;5077947;28;20036;-63
2021/07/02 00:56:28;;;;;;;25.77;10.23;;;16.20;99.90;;;;;;5084276;28;20043;-63
2021/07/02 00:58:53;;;;;;;30.17;11.40;;;16.20;99.90;;;;;;5083967;28;20051;-63
2021/07/02 01:01:19;;;;;;;23.05;10.80;;;16.20;99.90;;;;;;5088873;28;20135;-63
2021/07/02 01:03:47;;;;;;;25.25;10.90;;;16.20;99.90;;;;;;5085616;28;20036;-63
2021/07/02 01:06:15;;;;;;;26.73;10.55;;;16.20;99.90;;;;;;5087343;28;20048;-63
2021/07/02 01:08:41;;;;;;;20.52;10.70;;;16.20;99.90;;;;;;5086664;28;20044;-63
2021/07/02 01:11:08;;;;;;;23.02;10.25;;;16.10;99.90;;;;;;5088338;28;20028;-63
2021/07/02 01:13:34;;;;;;;20.30;9.57;;;16.10;99.90;;;;;;5082336;28;20036;-63
2021/07/02 01:16:00;;;;;;;23.95;9.77;;;16.20;99.90;;;;;;5085091;28;20046;-63
2021/07/02 01:18:25;;;;;;;28.38;10.52;;;16.10;99.90;;;;;;5084263;28;20035;-63
2021/07/02 01:20:53;;;;;;;23.80;10.02;;;16.20;99.90;;;;;;5084788;28;20435;-63
2021/07/02 01:23:19;;;;;;;21.10;9.68;;;16.10;99.90;;;;;;5085532;28;20505;-63
2021/07/02 01:25:46;;;;;;;21.00;10.10;;;16.20;99.90;;;;;;5085038;28;20168;-63
2021/07/02 01:28:13;;;;;;;22.75;9.50;;;16.20;99.90;;;;;;5087485;28;20508;-63
2021/07/02 01:30:41;;;;;;;15.68;9.18;;;16.20;99.90;;;;;;5083738;28;20510;-64
2021/07/02 01:33:07;;;;;;;16.13;9.38;;;16.10;99.90;;;;;;5087663;28;20085;-63
2021/07/02 01:35:34;;;;;;;21.98;9.68;;;16.10;99.90;;;;;;5080348;28;20071;-63
2021/07/02 01:37:59;;;;;;;19.13;9.20;;;16.10;99.90;;;;;;5077745;28;20052;-63
2021/07/02 01:40:25;;;;;;;21.40;9.68;;;16.10;99.90;;;;;;5080344;28;20036;-63
2021/07/02 01:42:51;;;;;;;17.63;10.10;;;16.10;99.90;;;;;;5081648;28;20024;-63
2021/07/02 01:45:16;;;;;;;17.20;8.90;;;16.10;99.90;;;;;;5081844;28;20040;-63
2021/07/02 01:47:42;;;;;;;17.67;10.00;;;16.10;99.90;;;;;;5079285;28;20047;-63
2021/07/02 01:50:09;;;;;;;18.88;9.25;;;16.10;99.90;;;;;;5082443;28;20044;-63
2021/07/02 01:52:34;;;;;;;18.30;9.00;;;16.10;99.90;;;;;;5097662;27;20660;-63
2021/07/02 01:55:00;;;;;;;17.77;9.75;;;16.10;99.90;;;;;;5080697;28;20040;-63
2021/07/02 01:57:27;;;;;;;14.73;8.75;;;16.10;99.90;;;;;;5078357;28;20047;-63
2021/07/02 01:59:54;;;;;;;21.08;10.45;;;16.10;99.90;;;;;;5079759;28;20043;-63
2021/07/02 02:02:20;;;;;;;18.50;9.82;;;16.10;99.90;;;;;;5080744;28;20111;-63
2021/07/02 02:04:46;;;;;;;17.95;8.85;;;16.10;99.90;;;;;;5081632;28;20385;-63
2021/07/02 02:07:13;;;;;;;20.33;8.65;;;16.10;99.90;;;;;;5083759;28;20052;-63
2021/07/02 02:09:39;;;;;;;14.45;9.30;;;16.10;99.90;;;;;;5083767;28;20627;-63
2021/07/02 02:12:06;;;;;;;17.75;9.43;;;16.10;99.90;;;;;;5078054;28;20111;-63
2021/07/02 02:14:32;;;;;;;14.90;8.40;;;16.10;99.90;;;;;;5080879;28;20055;-63
2021/07/02 02:16:58;;;;;;;16.08;9.40;;;16.10;99.90;;;;;;5081126;28;20037;-63
2021/07/02 02:19:25;;;;;;;22.67;10.32;;;16.10;99.90;;;;;;5079272;28;20603;-63
2021/07/02 02:21:51;;;;;;;17.27;9.18;;;16.10;99.90;;;;;;5077797;28;20052;-63
2021/07/02 02:24:19;;;;;;;21.15;9.38;;;16.10;99.90;;;;;;5079919;28;20040;-63
2021/07/02 02:26:45;;;;;;;12.90;9.05;;;16.10;99.90;;;;;;5081438;28;20135;-63
2021/07/02 02:29:11;;;;;;;17.75;10.32;;;16.10;99.90;;;;;;5084654;28;20116;-63
2021/07/02 02:31:37;;;;;;;18.33;8.77;;;16.10;99.90;;;;;;5086499;28;20044;-63
2021/07/02 02:34:03;;;;;;;17.00;8.98;;;16.10;99.90;;;;;;5082522;28;20534;-63
2021/07/02 02:36:29;;;;;;;19.23;10.23;;;16.10;99.90;;;;;;5084855;28;20071;-63
2021/07/02 02:38:55;;;;;;;21.70;9.77;;;16.10;99.90;;;;;;5082405;28;20088;-63
2021/07/02 02:41:22;;;;;;;22.73;9.75;;;16.10;99.90;;;;;;5081982;28;20183;-63
2021/07/02 02:43:47;;;;;;;24.83;10.65;;;16.10;99.90;;;;;;5084804;28;20108;-63
2021/07/02 02:46:13;;;;;;;22.88;9.77;;;16.10;99.90;;;;;;5083437;28;20044;-63
2021/07/02 02:48:39;;;;;;;17.77;9.13;;;16.10;99.90;;;;;;5082848;28;20067;-63
2021/07/02 02:51:05;;;;;;;22.50;10.25;;;16.10;99.90;;;;;;5083131;28;20032;-63
2021/07/02 02:53:31;;;;;;;22.08;10.20;;;16.00;99.90;;;;;;5082054;28;20129;-63
2021/07/02 02:55:57;;;;;;;22.23;10.32;;;16.10;99.90;;;;;;5083824;28;20044;-63
2021/07/02 02:58:23;;;;;;;21.30;10.63;;;16.00;99.90;;;;;;5080548;28;20402;-63
2021/07/02 03:00:49;;;;;;;23.15;10.85;;;16.10;99.90;;;;;;5081778;28;20114;-63
2021/07/02 03:03:15;;;;;;;23.73;11.00;;;16.10;99.90;;;;;;5083774;28;20047;-63
2021/07/02 03:05:40;;;;;;;22.00;9.90;;;16.00;99.90;;;;;;5082892;28;20088;-63
2021/07/02 03:08:07;;;;;;;22.92;11.07;;;16.00;99.90;;;;;;5085798;28;20052;-63
2021/07/02 03:10:33;;;;;;;22.73;11.85;;;16.00;99.90;;;;;;5083177;28;20486;-63
2021/07/02 03:12:59;;;;;;;25.20;11.90;;;16.00;99.90;;;;;;5080938;28;20439;-63
2021/07/02 03:15:26;;;;;;;30.45;12.10;;;16.00;99.90;;;;;;5081504;28;20123;-63
2021/07/02 03:17:52;;;;;;;27.52;12.30;;;16.10;99.90;;;;;;5085884;28;20040;-63
2021/07/02 03:20:18;;;;;;;32.45;13.35;;;16.10;99.90;;;;;;5080167;28;20496;-63
2021/07/02 03:22:43;;;;;;;24.90;13.13;;;16.10;99.90;;;;;;5083828;28;20569;-63
2021/07/02 03:25:11;;;;;;;27.85;13.10;;;16.00;99.90;;;;;;5084662;28;20032;-63
2021/07/02 03:27:38;;;;;;;27.33;12.75;;;16.00;99.90;;;;;;5083607;28;20090;-63
2021/07/02 03:30:06;;;;;;;21.15;11.75;;;16.00;99.90;;;;;;5097787;28;20040;-63
2021/07/02 03:32:32;;;;;;;25.73;12.40;;;16.00;99.90;;;;;;5084470;28;20064;-63
2021/07/02 03:34:58;;;;;;;25.55;14.15;;;16.00;99.90;;;;;;5083318;28;20068;-63
2021/07/02 03:37:24;;;;;;;21.70;13.40;;;16.00;99.90;;;;;;5082991;28;20047;-63
2021/07/02 03:39:50;;;;;;;28.20;13.60;;;15.90;99.90;;;;;;5082250;28;20044;-63
2021/07/02 03:42:16;;;;;;;24.27;11.95;;;15.90;99.90;;;;;;5082613;28;20035;-63
2021/07/02 03:44:42;;;;;;;18.25;11.65;;;15.90;99.90;;;;;;5083294;28;20126;-63
2021/07/02 03:47:07;;;;;;;24.88;12.57;;;15.90;99.90;;;;;;5084136;28;20046;-63
2021/07/02 03:49:33;;;;;;;24.17;12.50;;;15.80;99.90;;;;;;5084715;28;20089;-63
2021/07/02 03:51:59;;;;;;;24.23;12.93;;;15.80;99.90;;;;;;5082827;28;20041;-63
2021/07/02 03:54:25;;;;;;;19.85;13.35;;;15.80;99.90;;;;;;5082761;28;20043;-63
2021/07/02 03:59:35;;;;;;;26.13;13.57;;;15.80;99.90;;;;;;5085672;28;20047;-63
2021/07/02 04:02:01;;;;;;;23.98;13.88;;;15.80;99.90;;;;;;5084791;28;20118;-63
2021/07/02 04:04:27;;;;;;;28.95;13.68;;;15.90;99.90;;;;;;5083108;28;20040;-63
2021/07/02 04:06:53;;;;;;;19.52;12.60;;;15.80;99.90;;;;;;5083912;28;20050;-63
2021/07/02 04:09:19;;;;;;;25.83;14.93;;;15.80;99.90;;;;;;5084369;28;20094;-63
2021/07/02 04:11:45;;;;;;;27.58;13.18;;;15.80;99.90;;;;;;5080631;28;20040;-63
2021/07/02 04:14:10;;;;;;;22.83;13.32;;;15.80;99.90;;;;;;5081844;28;20040;-63
2021/07/02 04:16:36;;;;;;;20.20;13.02;;;15.80;99.90;;;;;;5084475;28;20055;-63
2021/07/02 04:19:02;;;;;;;19.48;12.00;;;15.80;99.90;;;;;;5080809;28;20136;-63
2021/07/02 04:21:28;;;;;;;24.02;14.18;;;15.80;99.90;;;;;;5081563;28;20490;-63
2021/07/02 04:23:53;;;;;;;23.00;13.23;;;15.80;99.90;;;;;;5081088;28;20390;-63
2021/07/02 04:26:19;;;;;;;21.05;12.98;;;15.80;99.90;;;;;;5081528;28;20051;-63
2021/07/02 04:28:45;;;;;;;16.30;12.60;;;15.80;99.90;;;;;;5083456;28;20040;-63
2021/07/02 04:31:11;;;;;;;14.88;11.70;;;15.80;99.90;;;;;;5084579;28;20040;-63
2021/07/02 04:33:37;;;;;;;25.50;12.68;;;15.70;99.90;;;;;;5081369;28;20060;-63
2021/07/02 04:36:03;;;;;;;18.30;12.82;;;15.80;99.90;;;;;;5082260;28;20040;-63
2021/07/02 04:38:28;;;;;;;23.17;13.85;;;15.80;99.90;;;;;;5083666;28;20044;-63
2021/07/02 04:40:54;;;;;;;19.73;12.70;;;15.90;99.90;;;;;;5081038;28;20047;-63
2021/07/02 04:43:20;;;;;;;23.98;14.07;;;15.80;99.90;;;;;;5083481;28;20470;-63
2021/07/02 04:45:46;;;;;;;21.10;14.55;;;15.80;99.90;;;;;;5076266;28;20075;-63
2021/07/02 04:48:11;;;;;;;27.10;15.43;;;15.80;99.90;;;;;;5079568;28;20044;-63
2021/07/02 04:50:37;;;;;;;24.30;14.00;;;15.80;99.90;;;;;;5085845;28;20481;-63
2021/07/02 04:53:03;;;;;;;24.65;14.95;;;15.80;99.90;;;;;;5085043;28;20047;-63
2021/07/02 04:55:28;;;;;;;25.52;15.18;;;15.80;99.90;;;;;;5084535;28;20032;-64
2021/07/02 04:57:54;;;;;;;25.30;15.20;;;15.80;99.90;;;;;;5086845;28;20101;-64
2021/07/02 05:00:20;;;;;;;19.65;14.25;;;15.90;99.90;;;;;;5085858;28;20031;-63
2021/07/02 05:02:46;;;;;;;27.33;15.80;;;15.80;99.90;;;;;;5084271;28;20119;-64
2021/07/02 05:05:11;;;;;;;29.75;17.20;;;15.80;99.90;;;;;;5083951;28;20070;-64
2021/07/02 05:07:38;;;;;;;26.58;16.42;;;15.70;99.90;;;;;;5080001;28;20444;-63
2021/07/02 05:10:06;;;;;;;26.38;17.02;;;15.70;99.90;;;;;;5083369;28;20040;-64
2021/07/02 05:12:32;;;;;;;28.65;16.08;;;15.90;99.90;;;;;;5080980;28;20036;-63
2021/07/02 05:14:59;;;;;;;26.45;17.60;;;15.80;99.90;;;;;;5081025;28;20048;-63
2021/07/02 05:17:26;;;;;;;29.70;18.85;;;15.80;99.90;;;;;;5082058;28;20067;-64
2021/07/02 05:19:52;;;;;;;30.65;17.73;;;15.70;99.90;;;;;;5082438;28;20107;-64
2021/07/02 05:22:21;;;;;;;32.72;17.83;;;15.70;99.90;;;;;;5080769;28;20067;-64
2021/07/02 05:24:48;;;;;;;28.42;17.52;;;15.80;99.90;;;;;;5083478;28;20036;-63
2021/07/02 05:27:14;;;;;;;32.53;17.95;;;15.80;99.90;;;;;;5080814;28;20436;-63
2021/07/02 05:29:40;;;;;;;31.25;17.60;;;15.80;99.90;;;;;;5082561;28;20036;-63
2021/07/02 05:32:07;;;;;;;32.30;18.80;;;15.80;99.90;;;;;;5084461;28;20486;-63
2021/07/02 05:34:33;;;;;;;29.52;19.75;;;15.90;99.90;;;;;;5082582;28;20047;-63
2021/07/02 05:37:00;;;;;;;25.02;17.13;;;15.90;99.90;;;;;;5081180;28;20040;-63
2021/07/02 05:39:26;;;;;;;36.75;21.35;;;15.80;99.90;;;;;;5084181;28;20040;-64
2021/07/02 05:41:52;;;;;;;37.42;20.70;;;15.90;99.90;;;;;;5082343;28;20372;-63
2021/07/02 05:44:18;;;;;;;32.38;19.02;;;15.90;99.90;;;;;;5083728;28;20071;-63
2021/07/02 05:46:44;;;;;;;35.17;20.13;;;15.90;99.90;;;;;;5087322;28;20036;-64
2021/07/02 05:49:10;;;;;;;30.85;18.98;;;15.90;99.90;;;;;;5086362;28;20051;-65
2021/07/02 05:51:35;;;;;;;35.83;20.98;;;15.90;99.90;;;;;;5086083;28;20424;-64
2021/07/02 05:54:01;;;;;;;32.50;20.02;;;15.90;99.90;;;;;;5088153;28;20037;-64
2021/07/02 05:56:28;;;;;;;29.98;19.52;;;15.90;99.90;;;;;;5087141;28;20074;-64
2021/07/02 05:58:55;;;;;;;35.97;20.73;;;16.00;99.90;;;;;;5083675;28;20040;-64
2021/07/02 06:01:21;;;;;;;30.67;19.92;;;16.00;99.90;;;;;;5089458;28;20046;-63
2021/07/02 06:03:47;;;;;;;30.73;19.75;;;16.00;99.90;;;;;;5084619;28;20040;-64
2021/07/02 06:06:12;;;;;;;30.02;19.95;;;16.00;99.90;;;;;;5087656;28;20119;-64
2021/07/02 06:08:38;;;;;;;29.02;19.65;;;16.10;99.90;;;;;;5087900;28;20033;-64
2021/07/02 06:11:05;;;;;;;31.23;19.85;;;16.10;99.90;;;;;;5086833;28;20074;-64
2021/07/02 06:13:31;;;;;;;39.53;20.15;;;16.10;99.90;;;;;;5086763;28;20108;-64
2021/07/02 06:15:57;;;;;;;32.63;19.38;;;16.10;99.90;;;;;;5089388;28;20493;-64
2021/07/02 06:18:23;;;;;;;27.10;18.30;;;16.20;99.90;;;;;;5085871;28;20038;-63
2021/07/02 06:20:52;;;;;;;27.88;17.40;;;16.10;99.90;;;;;;5085429;28;20040;-64
2021/07/02 06:23:19;;;;;;;28.05;18.20;;;16.20;99.90;;;;;;5086442;28;20036;-64
2021/07/02 06:25:45;;;;;;;34.70;18.38;;;16.20;99.90;;;;;;5084015;28;20664;-64
2021/07/02 06:28:11;;;;;;;28.60;15.95;;;16.30;99.90;;;;;;5085850;28;20032;-64
2021/07/02 06:30:37;;;;;;;24.17;15.45;;;16.30;99.90;;;;;;5089782;28;20133;-64
2021/07/02 06:33:12;;;;;;;25.13;15.85;;;16.20;99.90;;;;;;5088104;28;20032;-64
2021/07/02 06:35:38;;;;;;;26.73;16.40;;;16.30;99.90;;;;;;5083725;28;20544;-64
2021/07/02 06:38:03;;;;;;;21.35;14.40;;;16.30;99.90;;;;;;5085341;28;20063;-64
2021/07/02 06:40:30;;;;;;;22.40;14.55;;;16.30;99.90;;;;;;5083008;28;20032;-64
2021/07/02 06:42:55;;;;;;;18.63;12.68;;;16.30;99.90;;;;;;5083239;28;20036;-64
2021/07/02 06:45:21;;;;;;;23.33;13.07;;;16.30;99.90;;;;;;5086383;28;20119;-64
2021/07/02 06:47:58;;;;;;;21.42;14.07;;;16.30;99.90;;;;;;5085609;28;20505;-64
2021/07/02 06:50:26;;;;;;;16.17;13.10;;;16.30;99.90;;;;;;5087734;28;20047;-64
2021/07/02 06:52:53;;;;;;;19.50;14.43;;;16.30;99.90;;;;;;5087294;28;20040;-64
2021/07/02 06:55:39;;;;;;;25.58;16.40;;;16.30;99.90;;;;;;5085172;28;20052;-64
2021/07/02 06:58:05;;;;;;;21.17;14.85;;;16.30;99.90;;;;;;5099034;28;20452;-64
2021/07/02 07:00:31;;;;;;;20.60;15.30;;;16.40;99.90;;;;;;5084812;28;20043;-64
2021/07/02 07:02:57;;;;;;;19.20;15.38;;;16.40;99.90;;;;;;5088988;28;20036;-64
2021/07/02 07:05:23;;;;;;;21.73;14.35;;;16.40;99.90;;;;;;5085649;28;20051;-64
2021/07/02 07:07:49;;;;;;;21.88;14.82;;;16.50;99.90;;;;;;5086411;28;20044;-64
2021/07/02 07:10:15;;;;;;;20.10;14.02;;;16.40;99.90;;;;;;5085178;28;20044;-64
2021/07/02 07:12:41;;;;;;;21.77;14.18;;;16.40;99.90;;;;;;5087028;28;20615;-64
2021/07/02 07:15:08;;;;;;;21.23;13.38;;;16.40;99.90;;;;;;5084704;28;20047;-64
2021/07/02 07:17:33;;;;;;;23.73;15.07;;;16.50;99.90;;;;;;5084870;28;20407;-64
2021/07/02 07:19:59;;;;;;;20.00;13.43;;;16.60;99.90;;;;;;5085472;28;20043;-64
2021/07/02 07:22:25;;;;;;;18.90;13.02;;;16.60;99.90;;;;;;5084854;28;20040;-64
2021/07/02 07:24:51;;;;;;;16.75;12.60;;;16.60;99.90;;;;;;5086557;28;20040;-64
2021/07/02 07:27:18;;;;;;;24.10;14.80;;;16.70;99.90;;;;;;5082551;28;20048;-64
2021/07/02 07:29:45;;;;;;;23.52;14.80;;;16.70;99.90;;;;;;5080956;28;20087;-64
2021/07/02 07:32:11;;;;;;;15.70;13.15;;;16.70;99.90;;;;;;5080810;28;20740;-64
2021/07/02 07:34:44;;;;;;;19.00;13.23;;;16.70;99.90;;;;;;5080551;28;20057;-64
2021/07/02 07:37:20;;;;;;;19.45;13.55;;;16.80;99.90;;;;;;5080803;28;20032;-64
2021/07/02 07:39:50;;;;;;;17.10;13.38;;;16.80;99.90;;;;;;5081978;28;20036;-64
2021/07/02 07:42:17;;;;;;;17.50;12.82;;;16.80;99.90;;;;;;5083857;28;20499;-64
2021/07/02 07:44:43;;;;;;;19.17;13.43;;;16.80;99.90;;;;;;5083244;28;20131;-64
2021/07/02 07:47:09;;;;;;;18.40;14.10;;;17.00;99.90;;;;;;5080079;28;20114;-64
2021/07/02 07:49:35;;;;;;;24.33;13.20;;;17.00;99.90;;;;;;5081890;28;20387;-64
2021/07/02 07:52:12;;;;;;;20.73;13.88;;;17.00;99.90;;;;;;5079069;28;20695;-64
2021/07/02 07:54:39;;;;;;;18.15;11.40;;;17.00;99.90;;;;;;5084165;28;20048;-64
2021/07/02 07:57:05;;;;;;;18.13;13.13;;;17.00;99.90;;;;;;5081221;28;20044;-64
2021/07/02 07:59:33;;;;;;;15.85;11.82;;;17.10;99.90;;;;;;5081368;28;20067;-64
2021/07/02 08:01:59;;;;;;;17.85;11.82;;;17.20;99.90;;;;;;5080478;28;20043;-64
2021/07/02 08:04:25;;;;;;;16.05;11.35;;;17.20;99.90;;;;;;5081900;28;21580;-64
2021/07/02 08:06:51;;;;;;;14.25;11.52;;;17.30;99.90;;;;;;5082238;28;20036;-64
2021/07/02 08:09:19;;;;;;;15.05;11.25;;;17.30;99.90;;;;;;5079945;28;20086;-64
2021/07/02 08:11:46;;;;;;;13.45;10.68;;;17.30;99.90;;;;;;5079904;28;20047;-64
2021/07/02 08:14:13;;;;;;;15.25;11.15;;;17.30;99.90;;;;;;5080618;28;20047;-64
2021/07/02 08:16:40;;;;;;;15.02;10.80;;;17.30;99.90;;;;;;5080442;28;20050;-64
2021/07/02 08:19:06;;;;;;;15.57;10.38;;;17.40;99.90;;;;;;5079304;28;20045;-64
2021/07/02 08:21:48;;;;;;;12.60;10.68;;;17.40;99.90;;;;;;5076986;28;20048;-64
2021/07/02 08:24:15;;;;;;;14.68;11.20;;;17.50;99.90;;;;;;5080440;28;20397;-64
2021/07/02 08:26:42;;;;;;;13.93;11.43;;;17.50;99.90;;;;;;5082419;28;20040;-64
2021/07/02 08:29:22;;;;;;;16.13;11.93;;;17.50;99.90;;;;;;5086373;28;20040;-64
2021/07/02 08:31:50;;;;;;;16.05;10.82;;;17.50;99.90;;;;;;5086457;28;20028;-64
2021/07/02 08:34:18;;;;;;;12.02;10.13;;;17.50;99.90;;;;;;5085723;28;20121;-64
2021/07/02 08:36:44;;;;;;;11.95;9.70;;;17.50;99.90;;;;;;5087615;28;20082;-64
2021/07/02 08:39:10;;;;;;;11.48;10.10;;;17.50;99.90;;;;;;5085356;28;20044;-64
2021/07/02 08:41:37;;;;;;;15.55;10.98;;;17.50;99.90;;;;;;5088455;28;20074;-64
2021/07/02 08:44:02;;;;;;;14.10;10.68;;;17.50;99.90;;;;;;5083548;28;20032;-64
2021/07/02 08:46:29;;;;;;;13.00;11.60;;;17.50;99.90;;;;;;5083657;28;20039;-64
2021/07/02 08:48:54;;;;;;;16.15;11.35;;;17.50;99.90;;;;;;5085353;28;20111;-64
2021/07/02 08:51:24;;;;;;;14.95;11.63;;;17.50;99.90;;;;;;5086539;28;20383;-64
2021/07/02 08:53:49;;;;;;;16.05;12.57;;;17.50;99.90;;;;;;5084809;28;20039;-64
2021/07/02 08:56:19;;;;;;;16.63;12.57;;;17.50;99.90;;;;;;5085864;28;22035;-64
2021/07/02 08:58:45;;;;;;;16.95;12.60;;;17.50;99.90;;;;;;5084417;28;20051;-64
2021/07/02 09:01:37;;;;;;;18.40;12.75;;;17.40;99.90;;;;;;5086200;28;20040;-63
2021/07/02 09:04:24;;;;;;;20.48;12.15;;;17.50;99.90;;;;;;5085421;28;20727;-67
2021/07/02 09:07:13;;;;;;;16.52;11.52;;;17.50;99.90;;;;;;5087760;28;20452;-68
2021/07/02 09:09:44;;;;;;;16.27;12.10;;;17.50;99.90;;;;;;5081568;28;20398;-67
2021/07/02 09:12:11;;;;;;;16.30;11.88;;;17.50;99.90;;;;;;5085882;28;20067;-67
2021/07/02 09:14:37;;;;;;;24.85;12.88;;;17.50;99.90;;;;;;5084397;28;20047;-66
2021/07/02 09:17:12;;;;;;;17.60;13.02;;;17.50;99.90;;;;;;5085296;28;20044;-69
2021/07/02 09:19:38;;;;;;;21.23;14.13;;;17.60;99.90;;;;;;5086108;28;20040;-68
2021/07/02 09:22:18;;;;;;;18.77;13.05;;;17.50;99.90;;;;;;5087667;28;20517;-68
2021/07/02 09:24:46;;;;;;;16.83;12.73;;;17.50;99.90;;;;;;5089915;28;20047;-69
2021/07/02 09:27:30;;;;;;;18.45;11.77;;;17.50;99.90;;;;;;5086231;28;20045;-69
2021/07/02 09:30:10;;;;;;;17.23;12.15;;;17.60;99.90;;;;;;5089620;28;20047;-69
2021/07/02 09:32:51;;;;;;;17.00;12.25;;;17.60;99.90;;;;;;5088076;28;20066;-68
2021/07/02 09:35:18;;;;;;;17.77;11.68;;;17.50;99.90;;;;;;5089299;28;20032;-67
2021/07/02 09:37:50;;;;;;;17.50;11.40;;;17.50;99.90;;;;;;5089366;28;20100;-67
2021/07/02 09:40:28;;;;;;;15.13;10.82;;;17.50;99.90;;;;;;5088664;28;20033;-67
2021/07/02 09:43:05;;;;;;;15.52;11.27;;;17.50;99.90;;;;;;5090533;28;20397;-67
2021/07/02 09:45:33;;;;;;;15.00;10.18;;;17.50;99.90;;;;;;5088222;28;20058;-68
2021/07/02 09:48:10;;;;;;;16.77;10.23;;;17.50;99.90;;;;;;5089213;28;20074;-68
2021/07/02 09:50:53;;;;;;;11.70;9.70;;;17.60;99.90;;;;;;5087047;28;20038;-68
2021/07/02 09:53:25;;;;;;;13.13;9.88;;;17.50;99.90;;;;;;5087636;28;20501;-68
2021/07/02 09:55:55;;;;;;;16.55;9.23;;;17.60;99.90;;;;;;5086526;28;20040;-68
2021/07/02 09:58:29;;;;;;;12.25;8.38;;;17.50;99.90;;;;;;5086263;28;20039;-68
2021/07/02 10:00:57;;;;;;;8.80;6.50;;;17.60;99.90;;;;;;5084340;28;20055;-68
2021/07/02 10:03:28;;;;;;;11.73;7.55;;;17.50;99.90;;;;;;5087380;28;20028;-68
2021/07/02 10:05:55;;;;;;;10.48;5.72;;;17.50;99.90;;;;;;5089645;28;20064;-68
2021/07/02 10:08:24;;;;;;;6.72;5.97;;;17.60;99.90;;;;;;5085269;28;20050;-68
2021/07/02 10:10:51;;;;;;;7.95;6.00;;;17.60;99.90;;;;;;5085827;28;20040;-68
2021/07/02 10:13:20;;;;;;;8.52;6.70;;;17.60;99.90;;;;;;5086849;28;20056;-68
2021/07/02 10:15:46;;;;;;;11.40;7.22;;;17.60;99.90;;;;;;5089204;28;20036;-68
2021/07/02 10:18:14;;;;;;;9.95;7.30;;;17.70;99.90;;;;;;5086789;28;20133;-68
2021/07/02 10:20:42;;;;;;;10.10;7.38;;;17.70;99.90;;;;;;5085598;28;20509;-68
2021/07/02 10:23:08;;;;;;;12.15;6.93;;;17.80;99.90;;;;;;5087044;28;20039;-68
2021/07/02 10:25:36;;;;;;;10.35;7.07;;;17.90;99.90;;;;;;5089056;28;20043;-68
2021/07/02 10:28:04;;;;;;;11.02;6.85;;;17.90;99.90;;;;;;5087816;28;20036;-68
2021/07/02 10:30:29;;;;;;;9.70;7.53;;;17.90;99.90;;;;;;5088252;28;20113;-68
2021/07/02 10:32:58;;;;;;;10.85;7.38;;;18.00;99.90;;;;;;5084756;28;20082;-69
2021/07/02 10:35:25;;;;;;;11.68;7.65;;;18.00;99.90;;;;;;5083447;28;20394;-68
2021/07/02 10:37:56;;;;;;;10.15;8.10;;;18.00;99.90;;;;;;5088695;28;20048;-68
2021/07/02 10:40:34;;;;;;;11.68;9.43;;;18.10;99.90;;;;;;5085986;28;20047;-69
2021/07/02 10:43:17;;;;;;;11.02;8.18;;;18.10;99.90;;;;;;5085124;28;20036;-68
2021/07/02 10:46:10;;;;;;;17.65;9.32;;;18.10;99.90;;;;;;5087678;28;20047;-68
2021/07/02 10:48:57;;;;;;;13.80;9.73;;;18.20;99.90;;;;;;5088375;28;20077;-68
2021/07/02 10:51:40;;;;;;;11.80;8.85;;;18.20;99.90;;;;;;5086589;28;20658;-68
2021/07/02 10:54:23;;;;;;;13.40;9.65;;;18.20;99.90;;;;;;5087752;28;20474;-68
2021/07/02 10:56:49;;;;;;;11.77;9.48;;;18.20;99.90;;;;;;5086485;28;20036;-69
2021/07/02 10:59:17;;;;;;;11.77;9.55;;;18.20;99.90;;;;;;5085573;28;20036;-69
2021/07/02 11:02:05;;;;;;;13.77;9.65;;;18.30;99.90;;;;;;5089618;28;20050;-68
2021/07/02 11:04:50;;;;;;;11.35;8.43;;;18.30;99.90;;;;;;5084679;28;20036;-68
2021/07/02 11:07:15;;;;;;;12.20;7.85;;;18.30;99.90;;;;;;5086543;28;20223;-69
2021/07/02 11:12:32;;;;;;;11.18;7.40;;;18.20;99.90;;;;;;5087136;28;20120;-69
2021/07/02 11:14:58;;;;;;;10.65;6.88;;;18.20;99.90;;;;;;5088167;28;21518;-69
2021/07/02 11:17:31;;;;;;;10.15;7.32;;;18.20;99.90;;;;;;5087557;28;20058;-69
2021/07/02 11:20:06;;;;;;;13.63;7.65;;;18.10;99.90;;;;;;5086740;28;20028;-69
2021/07/02 11:22:45;;;;;;;12.13;7.25;;;18.10;99.90;;;;;;5086370;28;20386;-69
2021/07/02 11:25:14;;;;;;;8.50;6.03;;;18.20;99.90;;;;;;5086517;28;20044;-69
2021/07/02 11:27:56;;;;;;;6.53;5.82;;;18.20;99.90;;;;;;5087546;28;20052;-68
2021/07/02 11:30:22;;;;;;;8.73;5.75;;;18.20;99.90;;;;;;5085203;28;20536;-69
2021/07/02 11:32:53;;;;;;;9.90;6.40;;;18.20;99.90;;;;;;5086000;28;20489;-69
2021/07/02 11:35:27;;;;;;;8.52;5.65;;;18.30;99.90;;;;;;5084723;28;20032;-69
2021/07/02 11:38:03;;;;;;;8.98;5.68;;;18.40;99.90;;;;;;5083149;28;20043;-69
2021/07/02 11:40:29;;;;;;;7.55;5.75;;;18.50;99.90;;;;;;5084278;28;20051;-69
2021/07/02 11:42:56;;;;;;;6.53;5.93;;;18.70;99.90;;;;;;5084591;28;20067;-69
2021/07/02 11:45:41;;;;;;;6.35;5.40;;;18.90;99.90;;;;;;5096678;28;20136;-69
2021/07/02 11:48:28;;;;;;;5.40;4.82;;;19.10;99.90;;;;;;5083657;28;20083;-69
2021/07/02 11:51:04;;;;;;;9.82;5.82;;;19.20;99.90;;;;;;5079565;28;20497;-68
2021/07/02 11:53:37;;;;;;;8.25;5.57;;;19.40;99.90;;;;;;5083852;28;20032;-69
2021/07/02 11:56:07;;;;;;;9.85;6.10;;;19.60;99.90;;;;;;5085412;28;20128;-69
2021/07/02 11:58:35;;;;;;;6.07;5.57;;;19.70;99.90;;;;;;5081959;28;20040;-69
2021/07/02 12:01:07;;;;;;;5.80;4.35;;;19.90;99.90;;;;;;5083158;28;20028;-69
2021/07/02 12:03:34;;;;;;;5.00;2.83;;;20.10;99.90;;;;;;5085969;28;20036;-70
2021/07/02 12:06:01;;;;;;;6.63;4.03;;;20.20;99.90;;;;;;5085598;28;20037;-69
2021/07/02 12:08:29;;;;;;;6.30;3.70;;;20.20;99.90;;;;;;5085519;28;20029;-70
2021/07/02 12:11:05;;;;;;;5.07;3.55;;;20.50;99.90;;;;;;5083203;28;20071;-69
2021/07/02 12:13:33;;;;;;;4.32;3.92;;;20.80;99.90;;;;;;5084942;28;20036;-70
2021/07/02 12:16:06;;;;;;;5.95;3.70;;;21.20;99.90;;;;;;5085340;28;20036;-69
2021/07/02 12:18:34;;;;;;;7.18;3.60;;;21.40;99.90;;;;;;5084689;28;20063;-69
2021/07/02 12:21:04;;;;;;;5.35;2.70;;;21.70;99.90;;;;;;5084604;28;20033;-69
2021/07/02 12:23:36;;;;;;;3.80;2.25;;;21.80;99.90;;;;;;5086309;28;20067;-69
2021/07/02 12:26:29;;;;;;;4.13;3.70;;;22.00;98.70;;;;;;5085640;28;20071;-69
2021/07/02 12:29:08;;;;;;;5.38;3.55;;;22.20;99.70;;;;;;5083668;28;20118;-69
2021/07/02 12:31:43;;;;;;;10.25;5.90;;;22.30;99.10;;;;;;5083626;28;20032;-69
2021/07/02 12:34:15;;;;;;;5.80;4.53;;;22.40;98.80;;;;;;5085296;28;20144;-69
2021/07/02 12:37:05;;;;;;;5.18;4.30;;;22.40;98.60;;;;;;5081746;28;20106;-69
2021/07/02 12:39:35;;;;;;;6.20;5.00;;;22.40;99.40;;;;;;5079220;28;20046;-69
2021/07/02 12:42:13;;;;;;;4.82;4.20;;;22.50;99.50;;;;;;5081886;28;20032;-69